Millstone, Kentucky
Current Conditions -  °F | °C
As of 2:55 PM on Saturday 25 Oct 2014 (Local Time) from KLNP Reporting Station
Overcast Overcast  
Wind Chill: 64°   Ceiling: 3900
Heat Index: 64°   Visibility: 10mi
Dew Point: 43°   Wind: 7mph
Humidity: 45%   Direction: 300°WNW
Pressure: 30.04"   Gusts: NA
Location:  37.17°N, 82.75°W
Report Text: KLNP 251855Z AUTO 30006KT 10SM OVC039 18/06 A3004 RMK AO2
Loading
Personal Weather Stations






























Interactive Weather Map
Tropical Storm Tracking
New forecast layout! Learn more

10-Day Weather Forecast

Advertisements
Track Severe Weather on mobile